KMOB/MOB METAR and TAF weather

Enter ICAO airport designator
Station Type Date Time Source
KMOB METAR 2019/08/18 18:56 UTC NOAA

KMOB 181856Z VRB03KT 10SM SCT040 BKN070 BKN250 34/24 A3000 RMK AO2 SLP154 T03440239


Station Type Date Time Source
KMOB Decoded METAR 2019/08/18 18:56 UTC NOAA

Station name not available
Aug 18, 2019 - 02:56 PM EDT / 2019.08.18 1856 UTC
Wind: Variable at 3 MPH (3 KT):0
Visibility: 10 mile(s):0
Sky conditions: mostly cloudy
Temperature: 93.9 F (34.4 C)
Heat index: 105.4 F (40.8 C):1
Dew Point: 75.0 F (23.9 C)
Relative Humidity: 54%
Pressure (altimeter): 30 in. Hg (1015 hPa)
ob: KMOB 181856Z VRB03KT 10SM SCT040 BKN070 BKN250 34/24 A3000 RMK AO2 SLP154 T03440239
cycle: 19

Station Type Date Time Source
KMOB TAF 2019/08/18 18:33 UTC NOAA

TAF KMOB 181729Z 1818/1918 21007KT P6SM VCTS FEW030 BKN035CB BKN250
TEMPO 1818/1822 VRB15KT 3SM -TSRA BKN035CB BKN080 OVC200
FM190100 22003KT P6SM BKN050 BKN250
FM191500 34005KT P6SM VCSH SCT030 BKN040 BKN250

Example: see airport list